createdAt,value
2023-04-16T00:00:09.662Z,58.68
2023-04-16T00:02:39.666Z,59.97
2023-04-16T00:05:08.288Z,59.16
2023-04-16T00:07:36.278Z,59.80
2023-04-16T00:10:04.187Z,59.38
2023-04-16T00:12:33.543Z,59.38
2023-04-16T00:15:02.137Z,59.29
2023-04-16T00:17:32.323Z,61.51
2023-04-16T00:20:00.567Z,61.83
2023-04-16T00:22:28.414Z,62.76
2023-04-16T00:24:56.499Z,63.53
2023-04-16T00:27:24.896Z,59.83
2023-04-16T00:29:52.749Z,58.69
2023-04-16T00:32:20.686Z,61.40
2023-04-16T00:34:49.017Z,62.80
2023-04-16T00:37:16.989Z,62.68
2023-04-16T00:39:44.926Z,63.35
2023-04-16T00:42:13.131Z,64.66
2023-04-16T00:44:41.121Z,63.59
2023-04-16T00:47:09.211Z,63.28
2023-04-16T00:49:37.992Z,62.47
2023-04-16T00:52:06.250Z,63.49
2023-04-16T00:54:34.282Z,61.93
2023-04-16T00:57:03.384Z,63.16
2023-04-16T00:59:31.882Z,62.58
2023-04-16T01:01:59.920Z,63.92
2023-04-16T01:04:31.298Z,64.06
2023-04-16T01:06:59.238Z,63.96
2023-04-16T01:09:27.034Z,65.04
2023-04-16T01:11:55.319Z,64.12
2023-04-16T01:14:23.086Z,66.09
2023-04-16T01:16:51.037Z,66.03
2023-04-16T01:19:19.379Z,66.72
2023-04-16T01:21:47.326Z,64.82
2023-04-16T01:24:15.243Z,64.29
2023-04-16T01:26:43.479Z,64.24
2023-04-16T01:29:11.623Z,63.85
2023-04-16T01:31:39.422Z,63.90
2023-04-16T01:34:07.802Z,63.32
2023-04-16T01:36:35.727Z,62.07
2023-04-16T01:39:03.660Z,61.67
2023-04-16T01:41:32.536Z,61.71
2023-04-16T01:44:01.573Z,61.34
2023-04-16T01:46:31.391Z,63.21
2023-04-16T01:48:59.782Z,62.88
2023-04-16T01:51:28.461Z,63.79
2023-04-16T01:53:58.496Z,63.45
2023-04-16T01:56:26.878Z,62.80
2023-04-16T01:58:54.860Z,62.37
2023-04-16T02:01:24.549Z,61.99
2023-04-16T02:03:53.799Z,61.72
2023-04-16T02:06:21.888Z,61.91
2023-04-16T02:08:50.024Z,62.68
2023-04-16T02:11:18.287Z,61.76
2023-04-16T02:13:46.488Z,63.02
2023-04-16T02:16:14.534Z,62.59
2023-04-16T02:19:04.913Z,62.80
2023-04-16T02:21:33.475Z,62.66
2023-04-16T02:24:01.555Z,62.23
2023-04-16T02:26:30.954Z,62.15
2023-04-16T02:29:00.036Z,61.76
2023-04-16T02:31:29.065Z,61.70
2023-04-16T02:33:57.683Z,61.63
2023-04-16T02:36:25.949Z,61.25
2023-04-16T02:38:55.415Z,61.43
2023-04-16T02:41:23.346Z,61.47
2023-04-16T02:43:51.595Z,61.59
2023-04-16T02:46:19.869Z,60.58
2023-04-16T02:48:47.922Z,60.34
2023-04-16T02:51:17.034Z,59.79
2023-04-16T02:53:46.360Z,59.56
2023-04-16T02:56:14.601Z,59.67
2023-04-16T02:58:42.933Z,59.78
2023-04-16T03:01:10.694Z,59.71
2023-04-16T03:03:38.654Z,59.99
2023-04-16T03:06:06.909Z,59.51
2023-04-16T03:08:34.693Z,59.73
2023-04-16T03:11:02.688Z,59.33
2023-04-16T03:13:30.947Z,59.27
2023-04-16T03:15:59.013Z,59.22
2023-04-16T03:18:26.801Z,59.11
2023-04-16T03:20:54.936Z,59.34
2023-04-16T03:23:22.704Z,59.73
2023-04-16T03:25:51.467Z,59.19
2023-04-16T03:28:19.576Z,59.17
2023-04-16T03:30:54.404Z,59.09
2023-04-16T03:33:23.007Z,59.12
2023-04-16T03:35:59.450Z,58.73
2023-04-16T03:38:29.473Z,58.70
2023-04-16T03:40:57.478Z,58.71
2023-04-16T03:43:27.845Z,58.64
2023-04-16T03:45:55.984Z,58.65
2023-04-16T03:48:24.129Z,58.56
2023-04-16T03:50:52.022Z,58.60
2023-04-16T03:53:20.752Z,58.32
2023-04-16T03:55:53.121Z,57.82
2023-04-16T03:58:21.844Z,58.06
2023-04-16T04:00:50.024Z,57.79
2023-04-16T04:03:19.022Z,57.68
2023-04-16T04:05:47.489Z,57.21
2023-04-16T04:08:16.166Z,56.96
2023-04-16T04:10:46.132Z,56.70
2023-04-16T04:13:15.009Z,56.40
2023-04-16T04:15:44.305Z,56.00
2023-04-16T04:18:12.597Z,55.96
2023-04-16T04:20:41.578Z,55.83
2023-04-16T04:23:09.523Z,55.36
2023-04-16T04:25:37.625Z,55.18
2023-04-16T04:28:05.837Z,55.03
2023-04-16T04:30:36.030Z,55.16
2023-04-16T04:33:04.608Z,54.37
2023-04-16T04:35:32.580Z,54.59
2023-04-16T04:38:02.664Z,53.83
2023-04-16T04:40:31.846Z,53.53
2023-04-16T04:42:59.649Z,53.74
2023-04-16T04:45:29.618Z,53.53
2023-04-16T04:47:59.573Z,53.74
2023-04-16T04:50:27.567Z,52.81
2023-04-16T04:52:55.626Z,52.56
2023-04-16T04:55:23.957Z,51.83
2023-04-16T04:57:51.804Z,51.35
2023-04-16T05:00:22.159Z,51.09
2023-04-16T05:02:52.734Z,50.33
2023-04-16T05:05:21.127Z,49.38
2023-04-16T05:07:49.093Z,49.05
2023-04-16T05:10:17.423Z,48.72
2023-04-16T05:12:50.055Z,47.74
2023-04-16T05:15:18.233Z,47.35
2023-04-16T05:17:46.324Z,47.03
2023-04-16T05:20:14.924Z,46.58
2023-04-16T05:22:43.162Z,46.11
2023-04-16T05:25:10.974Z,46.57
2023-04-16T05:27:38.866Z,46.29
2023-04-16T05:30:07.808Z,46.59
2023-04-16T05:32:36.236Z,46.21
2023-04-16T05:35:04.138Z,45.66
2023-04-16T05:37:32.267Z,45.90
2023-04-16T05:40:00.248Z,45.48
2023-04-16T05:42:28.044Z,44.90
2023-04-16T05:44:56.496Z,44.55
2023-04-16T05:47:24.940Z,43.92
2023-04-16T05:49:53.810Z,43.71
2023-04-16T05:52:27.251Z,43.36
2023-04-16T05:54:55.439Z,42.81
2023-04-16T05:57:23.607Z,42.45
2023-04-16T05:59:51.362Z,42.17
2023-04-16T06:02:19.305Z,40.69
2023-04-16T06:04:47.938Z,39.93
2023-04-16T06:07:15.831Z,40.66
2023-04-16T06:09:46.148Z,40.13
2023-04-16T06:12:14.242Z,39.53
2023-04-16T06:14:41.956Z,39.61
2023-04-16T06:17:10.083Z,39.35
2023-04-16T06:19:39.184Z,38.85
2023-04-16T06:22:07.735Z,39.21
2023-04-16T06:24:35.669Z,39.22
2023-04-16T06:27:04.206Z,39.33
2023-04-16T06:29:40.463Z,37.88
2023-04-16T06:32:10.112Z,38.03
2023-04-16T06:34:39.568Z,37.72
2023-04-16T06:37:10.386Z,37.53
2023-04-16T06:39:38.820Z,37.75
2023-04-16T06:42:06.589Z,38.12
2023-04-16T06:44:34.450Z,37.74
2023-04-16T06:47:02.784Z,37.95
2023-04-16T06:49:30.695Z,37.33
2023-04-16T06:51:58.599Z,37.41
2023-04-16T06:54:26.810Z,37.26
2023-04-16T06:56:54.657Z,37.11
2023-04-16T06:59:22.367Z,38.07
2023-04-16T07:01:52.111Z,36.91
2023-04-16T07:04:20.353Z,36.16
2023-04-16T07:06:48.342Z,35.30
2023-04-16T07:09:18.757Z,33.78
2023-04-16T07:11:49.049Z,35.01
2023-04-16T07:14:17.801Z,35.88
2023-04-16T07:16:57.527Z,35.04
2023-04-16T07:19:32.781Z,35.82
2023-04-16T07:22:04.220Z,35.53
2023-04-16T07:24:33.016Z,35.82
2023-04-16T07:27:00.882Z,34.90
2023-04-16T07:29:29.280Z,33.17
2023-04-16T07:31:58.265Z,32.12
2023-04-16T07:34:26.388Z,31.82
2023-04-16T07:36:56.201Z,32.92
2023-04-16T07:39:25.185Z,32.05
2023-04-16T07:41:54.050Z,27.18
2023-04-16T07:44:22.055Z,34.06
2023-04-16T07:46:50.773Z,34.38
2023-04-16T07:49:25.679Z,33.73
2023-04-16T07:51:54.395Z,33.18
2023-04-16T07:54:22.645Z,34.07
2023-04-16T07:56:50.820Z,32.58
2023-04-16T07:59:23.596Z,32.73
2023-04-16T08:02:09.332Z,31.70
2023-04-16T08:04:37.838Z,31.19
2023-04-16T08:07:09.579Z,31.51
2023-04-16T08:09:51.992Z,31.89
2023-04-16T08:12:23.305Z,31.04
2023-04-16T08:14:54.673Z,26.97
2023-04-16T08:17:24.457Z,29.50
2023-04-16T08:19:56.078Z,31.09
2023-04-16T08:22:24.226Z,29.54
2023-04-16T08:24:52.262Z,30.69
2023-04-16T08:27:21.657Z,25.81
2023-04-16T08:29:49.661Z,29.88
2023-04-16T08:32:17.495Z,26.53
2023-04-16T08:34:46.043Z,20.65
2023-04-16T08:37:14.732Z,19.67
2023-04-16T08:39:42.856Z,30.84
2023-04-16T08:42:24.080Z,31.12
2023-04-16T08:47:51.665Z,31.50
2023-04-16T08:50:27.350Z,29.04
2023-04-16T08:53:07.111Z,28.74
2023-04-16T08:55:40.059Z,28.54
2023-04-16T08:58:26.483Z,26.71
2023-04-16T09:00:55.560Z,22.29
2023-04-16T09:03:24.760Z,17.13
2023-04-16T09:05:53.742Z,22.92
2023-04-16T09:08:22.041Z,27.26
2023-04-16T09:10:51.587Z,17.33
2023-04-16T09:13:20.959Z,28.44
2023-04-16T09:15:57.440Z,26.31
2023-04-16T09:18:26.279Z,18.95
2023-04-16T09:20:56.691Z,26.96
2023-04-16T09:23:25.582Z,18.30
2023-04-16T09:25:54.539Z,17.43
2023-04-16T09:28:46.290Z,23.93
2023-04-16T09:31:20.173Z,17.47
2023-04-16T09:34:06.338Z,28.53
2023-04-16T09:36:36.722Z,21.83
2023-04-16T09:39:07.711Z,17.83
2023-04-16T09:41:36.448Z,18.67
2023-04-16T09:44:05.853Z,24.96
2023-04-16T09:46:41.889Z,17.37
2023-04-16T09:49:19.007Z,25.94
2023-04-16T09:51:50.025Z,17.05
2023-04-16T09:54:20.862Z,27.60
2023-04-16T09:56:49.015Z,24.62
2023-04-16T09:59:20.867Z,23.37
2023-04-16T10:01:50.772Z,25.94
2023-04-16T10:04:20.740Z,24.36
2023-04-16T10:07:10.454Z,15.21
2023-04-16T10:09:39.809Z,14.62
2023-04-16T10:12:08.540Z,18.02
2023-04-16T10:14:36.740Z,26.70
2023-04-16T10:17:06.716Z,25.19
2023-04-16T10:19:35.528Z,25.62
2023-04-16T10:22:03.853Z,25.28
2023-04-16T10:24:33.753Z,25.26
2023-04-16T10:27:02.892Z,20.53
2023-04-16T10:29:32.532Z,22.41
2023-04-16T10:32:01.568Z,19.55
2023-04-16T10:34:31.690Z,22.06
2023-04-16T10:36:59.667Z,17.89
2023-04-16T10:39:31.205Z,15.63
2023-04-16T10:42:09.467Z,19.68
2023-04-16T10:44:41.907Z,19.71
2023-04-16T10:47:16.003Z,17.49
2023-04-16T10:49:44.348Z,27.30
2023-04-16T10:52:14.107Z,17.99
2023-04-16T10:54:41.996Z,25.09
2023-04-16T10:57:15.367Z,25.41
2023-04-16T10:59:44.592Z,24.79
2023-04-16T11:02:18.661Z,25.27
2023-04-16T11:04:50.923Z,25.19
2023-04-16T11:07:22.009Z,24.40
2023-04-16T11:09:53.474Z,24.32
2023-04-16T11:12:27.795Z,16.43
2023-04-16T11:15:04.019Z,19.27
2023-04-16T11:17:49.127Z,26.45
2023-04-16T11:20:26.246Z,25.92
2023-04-16T11:22:57.035Z,19.76
2023-04-16T11:25:30.300Z,17.48
2023-04-16T11:28:01.840Z,21.19
2023-04-16T11:30:37.200Z,19.16
2023-04-16T11:33:11.628Z,16.67
2023-04-16T11:35:40.350Z,18.46
2023-04-16T11:38:08.718Z,17.62
2023-04-16T11:40:36.821Z,21.48
2023-04-16T11:43:13.718Z,21.60
2023-04-16T11:45:57.848Z,19.87
2023-04-16T11:48:25.858Z,17.72
2023-04-16T11:51:00.044Z,20.02
2023-04-16T11:53:27.841Z,20.76
2023-04-16T11:55:56.829Z,22.14
2023-04-16T11:58:24.596Z,18.61
2023-04-16T12:00:57.125Z,20.38
2023-04-16T12:03:46.566Z,20.07
2023-04-16T12:06:14.754Z,25.90
2023-04-16T12:08:43.595Z,16.60
2023-04-16T12:11:11.623Z,19.16
2023-04-16T12:13:40.409Z,21.54
2023-04-16T12:16:21.479Z,22.08
2023-04-16T12:19:04.366Z,22.29
2023-04-16T12:21:40.328Z,22.47
2023-04-16T12:24:09.776Z,18.78
2023-04-16T12:26:46.851Z,19.93
2023-04-16T12:29:21.957Z,19.05
2023-04-16T12:31:54.715Z,22.10
2023-04-16T12:34:46.662Z,19.79
2023-04-16T12:37:11.581Z,18.69
2023-04-16T12:39:39.518Z,19.14
2023-04-16T12:42:10.261Z,18.01
2023-04-16T12:44:38.533Z,15.84
2023-04-16T12:47:06.464Z,17.14
2023-04-16T12:49:34.516Z,15.58
2023-04-16T12:52:03.602Z,17.52
2023-04-16T12:54:31.755Z,15.40
2023-04-16T12:56:59.802Z,14.15
2023-04-16T12:59:28.143Z,15.38
2023-04-16T13:01:56.488Z,14.39
2023-04-16T13:04:25.839Z,14.77
2023-04-16T13:06:54.450Z,16.06
2023-04-16T13:09:26.419Z,15.56
2023-04-16T13:11:54.803Z,13.30
2023-04-16T13:14:22.898Z,13.71
2023-04-16T13:16:50.998Z,12.49
2023-04-16T13:19:19.561Z,16.57
2023-04-16T13:21:47.684Z,15.85
2023-04-16T13:27:01.391Z,16.96
2023-04-16T13:29:30.453Z,16.87
2023-04-16T13:31:58.733Z,15.46
2023-04-16T13:34:27.002Z,17.69
2023-04-16T13:36:54.826Z,15.09
2023-04-16T13:39:22.965Z,14.17
2023-04-16T13:41:51.754Z,13.89
2023-04-16T13:44:19.744Z,14.89
2023-04-16T13:46:48.284Z,14.98
2023-04-16T13:49:16.779Z,14.59
2023-04-16T13:51:47.477Z,14.33
2023-04-16T13:54:15.255Z,12.99
2023-04-16T13:56:43.577Z,11.46
2023-04-16T13:59:11.638Z,13.09
2023-04-16T14:01:40.234Z,13.72
2023-04-16T14:04:08.613Z,14.55
2023-04-16T14:06:39.546Z,12.04
2023-04-16T14:09:07.549Z,13.36
2023-04-16T14:11:36.536Z,12.13
2023-04-16T14:16:51.077Z,13.98
2023-04-16T14:19:18.979Z,17.95
2023-04-16T14:21:46.894Z,19.56
2023-04-16T14:24:15.111Z,19.04
2023-04-16T14:26:46.299Z,18.70
2023-04-16T14:29:14.114Z,15.82
2023-04-16T14:31:44.933Z,13.63
2023-04-16T14:34:13.685Z,15.05
2023-04-16T14:36:41.744Z,14.88
2023-04-16T14:39:10.848Z,14.41
2023-04-16T14:41:38.888Z,15.47
2023-04-16T14:44:07.095Z,14.05
2023-04-16T14:46:35.244Z,14.21
2023-04-16T14:49:03.259Z,14.64
2023-04-16T14:51:32.104Z,15.58
2023-04-16T14:54:00.380Z,15.20
2023-04-16T14:56:28.194Z,16.49
2023-04-16T14:58:56.067Z,15.72
2023-04-16T15:01:24.253Z,17.06
2023-04-16T15:03:52.491Z,18.20
2023-04-16T15:06:20.694Z,16.55
2023-04-16T15:08:49.077Z,15.55
2023-04-16T15:11:16.936Z,15.83
2023-04-16T15:13:44.721Z,15.31
2023-04-16T15:16:13.085Z,17.83
2023-04-16T15:18:41.024Z,17.89
2023-04-16T15:21:10.590Z,17.37
2023-04-16T15:23:40.619Z,17.70
2023-04-16T15:26:08.342Z,21.26
2023-04-16T15:28:36.390Z,23.47
2023-04-16T15:31:04.575Z,24.12
2023-04-16T15:33:32.826Z,23.86
2023-04-16T15:36:02.793Z,25.72
2023-04-16T15:38:31.488Z,26.58
2023-04-16T15:41:01.197Z,26.18
2023-04-16T15:43:31.734Z,28.28
2023-04-16T15:46:03.495Z,27.72
2023-04-16T15:48:37.687Z,27.69
2023-04-16T15:51:06.507Z,27.45
2023-04-16T15:53:35.039Z,28.22
2023-04-16T15:56:02.841Z,26.40
2023-04-16T15:58:31.132Z,25.33
2023-04-16T16:00:59.261Z,28.76
2023-04-16T16:03:27.759Z,30.19
2023-04-16T16:05:57.559Z,30.09
2023-04-16T16:08:27.827Z,30.01
2023-04-16T16:10:55.756Z,30.39
2023-04-16T16:13:24.020Z,28.32
2023-04-16T16:15:52.523Z,30.81
2023-04-16T16:18:22.315Z,31.32
2023-04-16T16:20:52.144Z,30.36
2023-04-16T16:23:20.476Z,30.21
2023-04-16T16:25:48.344Z,31.81
2023-04-16T16:28:16.140Z,31.90
2023-04-16T16:30:45.416Z,32.78
2023-04-16T16:33:14.102Z,32.50
2023-04-16T16:35:42.123Z,33.24
2023-04-16T16:38:10.339Z,33.38
2023-04-16T16:40:39.990Z,32.73
2023-04-16T16:43:08.642Z,33.31
2023-04-16T16:45:36.945Z,32.43
2023-04-16T16:48:05.308Z,33.82
2023-04-16T16:50:33.395Z,33.72
2023-04-16T16:53:13.819Z,33.57
2023-04-16T16:55:41.850Z,33.85
2023-04-16T16:58:22.340Z,34.47
2023-04-16T17:01:08.963Z,34.21
2023-04-16T17:03:49.420Z,34.96
2023-04-16T17:06:18.374Z,34.98
2023-04-16T17:08:47.334Z,34.29
2023-04-16T17:11:16.837Z,35.32
2023-04-16T17:13:56.772Z,35.16
2023-04-16T17:16:25.247Z,34.75
2023-04-16T17:18:53.267Z,35.90
2023-04-16T17:21:24.366Z,35.22
2023-04-16T17:24:05.386Z,35.03
2023-04-16T17:26:33.387Z,35.46
2023-04-16T17:29:01.381Z,35.03
2023-04-16T17:31:29.889Z,36.53
2023-04-16T17:33:59.889Z,36.44
2023-04-16T17:36:47.472Z,36.44
2023-04-16T17:39:15.652Z,36.18
2023-04-16T17:41:44.184Z,36.45
2023-04-16T17:44:12.109Z,36.22
2023-04-16T17:46:58.002Z,37.63
2023-04-16T17:49:25.902Z,37.57
2023-04-16T17:51:54.729Z,37.78
2023-04-16T17:54:22.616Z,38.05
2023-04-16T17:56:50.978Z,38.58
2023-04-16T17:59:19.935Z,38.62
2023-04-16T18:01:49.826Z,39.02
2023-04-16T18:04:18.570Z,38.32
2023-04-16T18:06:47.137Z,39.35
2023-04-16T18:09:15.813Z,38.52
2023-04-16T18:11:43.956Z,39.67
2023-04-16T18:14:14.332Z,40.20
2023-04-16T18:16:42.341Z,39.68
2023-04-16T18:19:23.143Z,40.21
2023-04-16T18:21:55.626Z,40.14
2023-04-16T18:24:23.702Z,40.28
2023-04-16T18:27:04.194Z,40.09
2023-04-16T18:29:33.922Z,40.50
2023-04-16T18:32:04.163Z,40.49
2023-04-16T18:34:33.318Z,40.24
2023-04-16T18:37:01.441Z,40.10
2023-04-16T18:39:42.188Z,41.15
2023-04-16T18:42:10.004Z,40.84
2023-04-16T18:44:55.725Z,40.49
2023-04-16T18:47:23.772Z,40.83
2023-04-16T18:49:52.017Z,40.13
2023-04-16T18:52:19.950Z,40.73
2023-04-16T18:54:47.665Z,41.13
2023-04-16T18:57:16.066Z,41.06
2023-04-16T18:59:43.896Z,40.53
2023-04-16T19:02:11.909Z,41.13
2023-04-16T19:04:40.446Z,41.67
2023-04-16T19:07:08.264Z,41.29
2023-04-16T19:09:48.455Z,41.95
2023-04-16T19:12:16.807Z,42.24
2023-04-16T19:14:44.737Z,42.27
2023-04-16T19:17:12.821Z,42.16
2023-04-16T19:19:54.034Z,42.29
2023-04-16T19:22:21.950Z,42.75
2023-04-16T19:24:50.245Z,43.16
2023-04-16T19:27:18.154Z,42.92
2023-04-16T19:29:47.202Z,43.34
2023-04-16T19:32:16.022Z,43.51
2023-04-16T19:34:43.948Z,43.45
2023-04-16T19:37:11.980Z,43.71
2023-04-16T19:39:42.393Z,43.42
2023-04-16T19:42:10.242Z,43.85
2023-04-16T19:44:38.148Z,44.04
2023-04-16T19:47:06.870Z,43.91
2023-04-16T19:49:34.761Z,44.50
2023-04-16T19:52:02.745Z,44.32
2023-04-16T19:54:33.927Z,44.60
2023-04-16T19:57:01.896Z,44.52
2023-04-16T19:59:32.452Z,44.74
2023-04-16T20:02:12.489Z,44.99
2023-04-16T20:04:40.753Z,44.84
2023-04-16T20:07:08.684Z,45.12
2023-04-16T20:09:36.750Z,44.66
2023-04-16T20:12:05.086Z,45.41
2023-04-16T20:14:32.931Z,45.34
2023-04-16T20:17:02.195Z,44.71
2023-04-16T20:19:42.738Z,45.26
2023-04-16T20:22:10.697Z,45.84
2023-04-16T20:24:55.288Z,45.60
2023-04-16T20:27:23.277Z,46.05
2023-04-16T20:29:52.248Z,46.50
2023-04-16T20:32:20.349Z,45.99
2023-04-16T20:34:49.191Z,46.43
2023-04-16T20:37:17.680Z,46.50
2023-04-16T20:39:47.003Z,46.75
2023-04-16T20:42:14.869Z,46.84
2023-04-16T20:44:50.582Z,46.80
2023-04-16T20:47:18.504Z,46.81
2023-04-16T20:49:46.820Z,47.04
2023-04-16T20:52:15.920Z,47.20
2023-04-16T20:54:45.003Z,47.60
2023-04-16T20:57:14.049Z,47.51
2023-04-16T20:59:41.949Z,47.75
2023-04-16T21:02:10.168Z,47.57
2023-04-16T21:04:38.474Z,47.95
2023-04-16T21:07:06.538Z,47.76
2023-04-16T21:09:34.348Z,48.04
2023-04-16T21:12:02.914Z,48.32
2023-04-16T21:14:30.973Z,48.36
2023-04-16T21:16:58.840Z,48.87
2023-04-16T21:19:29.922Z,49.03
2023-04-16T21:21:57.883Z,48.76
2023-04-16T21:24:25.804Z,49.03
2023-04-16T21:26:53.995Z,49.29
2023-04-16T21:29:21.852Z,49.17
2023-04-16T21:31:49.842Z,48.69
2023-04-16T21:34:18.185Z,49.75
2023-04-16T21:36:46.480Z,49.36
2023-04-16T21:39:16.339Z,49.94
2023-04-16T21:41:44.506Z,49.96
2023-04-16T21:44:12.536Z,49.19
2023-04-16T21:46:40.476Z,49.64
2023-04-16T21:49:08.966Z,49.25
2023-04-16T21:51:38.141Z,49.33
2023-04-16T21:54:06.471Z,49.03
2023-04-16T21:56:34.593Z,48.76
2023-04-16T21:59:02.537Z,48.49
2023-04-16T22:01:30.514Z,49.45
2023-04-16T22:03:58.923Z,49.55
2023-04-16T22:06:27.519Z,49.77
2023-04-16T22:08:55.358Z,49.24
2023-04-16T22:11:23.628Z,49.29
2023-04-16T22:13:52.167Z,49.32
2023-04-16T22:16:22.356Z,48.83
2023-04-16T22:18:51.602Z,49.13
2023-04-16T22:21:19.405Z,49.31
2023-04-16T22:23:47.478Z,49.65
2023-04-16T22:26:15.919Z,49.82
2023-04-16T22:28:43.820Z,49.51
2023-04-16T22:31:11.833Z,49.52
2023-04-16T22:33:40.084Z,49.71
2023-04-16T22:36:08.191Z,49.71
2023-04-16T22:38:37.291Z,49.53
2023-04-16T22:41:05.735Z,49.12
2023-04-16T22:43:35.219Z,49.57
2023-04-16T22:46:09.876Z,49.38
2023-04-16T22:48:39.048Z,49.36
2023-04-16T22:51:09.376Z,49.14
2023-04-16T22:53:37.352Z,48.96
2023-04-16T22:56:05.983Z,48.94
2023-04-16T22:58:33.917Z,48.95
2023-04-16T23:01:02.053Z,49.12
2023-04-16T23:03:31.006Z,49.22
2023-04-16T23:05:58.953Z,49.23
2023-04-16T23:08:26.827Z,49.02
2023-04-16T23:10:55.051Z,49.47
2023-04-16T23:13:22.954Z,49.63
2023-04-16T23:15:51.202Z,51.26
2023-04-16T23:18:19.490Z,50.62
2023-04-16T23:20:51.014Z,51.03
2023-04-16T23:23:19.438Z,51.13
2023-04-16T23:25:47.453Z,52.48
2023-04-16T23:28:16.078Z,52.11
2023-04-16T23:30:44.372Z,51.52
2023-04-16T23:33:12.332Z,53.28
2023-04-16T23:35:40.226Z,51.89
2023-04-16T23:38:08.343Z,51.35
2023-04-16T23:40:36.221Z,51.16
2023-04-16T23:43:04.144Z,51.50
2023-04-16T23:45:32.424Z,51.47
2023-04-16T23:48:00.513Z,51.54
2023-04-16T23:50:28.575Z,51.08
2023-04-16T23:52:56.980Z,51.53
2023-04-16T23:55:25.087Z,51.75
2023-04-16T23:57:52.892Z,51.35
